sensor_id;sensor_type;location;lat;lon;timestamp;temperature;humidity
3713;DHT22;1872;51.406;6.856;2023-02-26T00:02:14;1.00;99.90
3713;DHT22;1872;51.406;6.856;2023-02-26T00:04:40;1.00;99.90
3713;DHT22;1872;51.406;6.856;2023-02-26T00:07:06;1.00;99.90
3713;DHT22;1872;51.406;6.856;2023-02-26T00:09:32;0.90;99.90
3713;DHT22;1872;51.406;6.856;2023-02-26T00:11:59;0.90;99.90
3713;DHT22;1872;51.406;6.856;2023-02-26T00:14:25;1.00;99.90
3713;DHT22;1872;51.406;6.856;2023-02-26T00:19:56;1.00;99.90
3713;DHT22;1872;51.406;6.856;2023-02-26T00:22:22;1.00;99.90
3713;DHT22;1872;51.406;6.856;2023-02-26T00:24:48;1.00;99.90
3713;DHT22;1872;51.406;6.856;2023-02-26T00:27:13;1.00;99.90
3713;DHT22;1872;51.406;6.856;2023-02-26T00:29:39;1.00;99.90
3713;DHT22;1872;51.406;6.856;2023-02-26T00:32:05;1.00;99.90
3713;DHT22;1872;51.406;6.856;2023-02-26T00:34:33;1.00;99.90
3713;DHT22;1872;51.406;6.856;2023-02-26T00:42:10;1.10;99.90
3713;DHT22;1872;51.406;6.856;2023-02-26T00:44:36;1.10;99.90
3713;DHT22;1872;51.406;6.856;2023-02-26T00:50:01;1.10;99.90
3713;DHT22;1872;51.406;6.856;2023-02-26T00:55:04;1.10;99.90
3713;DHT22;1872;51.406;6.856;2023-02-26T00:57:29;1.10;99.90
3713;DHT22;1872;51.406;6.856;2023-02-26T00:59:55;1.20;99.90
3713;DHT22;1872;51.406;6.856;2023-02-26T01:02:21;1.20;99.90
3713;DHT22;1872;51.406;6.856;2023-02-26T01:04:46;1.20;99.90
3713;DHT22;1872;51.406;6.856;2023-02-26T01:07:13;1.30;99.90
3713;DHT22;1872;51.406;6.856;2023-02-26T01:09:39;1.30;99.90
3713;DHT22;1872;51.406;6.856;2023-02-26T01:12:07;1.30;99.90
3713;DHT22;1872;51.406;6.856;2023-02-26T01:14:34;1.30;99.90
3713;DHT22;1872;51.406;6.856;2023-02-26T01:25:03;1.30;99.90
3713;DHT22;1872;51.406;6.856;2023-02-26T01:27:29;1.30;99.90
3713;DHT22;1872;51.406;6.856;2023-02-26T01:29:55;1.30;99.90
3713;DHT22;1872;51.406;6.856;2023-02-26T01:35:20;1.30;99.90
3713;DHT22;1872;51.406;6.856;2023-02-26T01:51:16;1.10;99.90
3713;DHT22;1872;51.406;6.856;2023-02-26T01:53:43;1.10;99.90
3713;DHT22;1872;51.406;6.856;2023-02-26T01:56:17;1.10;99.90
3713;DHT22;1872;51.406;6.856;2023-02-26T01:58:46;1.10;99.90
3713;DHT22;1872;51.406;6.856;2023-02-26T02:01:12;1.10;99.90
3713;DHT22;1872;51.406;6.856;2023-02-26T02:03:40;1.00;99.90
3713;DHT22;1872;51.406;6.856;2023-02-26T02:06:09;1.00;99.90
3713;DHT22;1872;51.406;6.856;2023-02-26T02:08:38;1.00;99.90
3713;DHT22;1872;51.406;6.856;2023-02-26T02:11:06;1.00;99.90
3713;DHT22;1872;51.406;6.856;2023-02-26T02:19:42;0.90;99.90
3713;DHT22;1872;51.406;6.856;2023-02-26T02:25:49;0.90;99.90
3713;DHT22;1872;51.406;6.856;2023-02-26T02:31:49;0.80;99.90
3713;DHT22;1872;51.406;6.856;2023-02-26T02:34:26;0.70;99.90
3713;DHT22;1872;51.406;6.856;2023-02-26T02:39:45;0.60;99.90
3713;DHT22;1872;51.406;6.856;2023-02-26T02:45:19;0.60;99.90
3713;DHT22;1872;51.406;6.856;2023-02-26T02:47:49;0.60;99.90
3713;DHT22;1872;51.406;6.856;2023-02-26T02:53:00;0.50;99.90
3713;DHT22;1872;51.406;6.856;2023-02-26T02:55:31;0.50;99.90
3713;DHT22;1872;51.406;6.856;2023-02-26T02:58:07;0.50;99.90
3713;DHT22;1872;51.406;6.856;2023-02-26T03:00:36;0.50;99.90
3713;DHT22;1872;51.406;6.856;2023-02-26T03:06:00;0.50;99.90
3713;DHT22;1872;51.406;6.856;2023-02-26T03:08:29;0.50;99.90
3713;DHT22;1872;51.406;6.856;2023-02-26T03:10:55;0.40;99.90
3713;DHT22;1872;51.406;6.856;2023-02-26T03:13:23;0.40;99.90
3713;DHT22;1872;51.406;6.856;2023-02-26T03:23:56;0.40;99.90
3713;DHT22;1872;51.406;6.856;2023-02-26T03:26:30;0.40;99.90
3713;DHT22;1872;51.406;6.856;2023-02-26T03:29:13;0.30;99.90
3713;DHT22;1872;51.406;6.856;2023-02-26T03:31:59;0.30;99.90
3713;DHT22;1872;51.406;6.856;2023-02-26T03:34:31;0.30;99.90
3713;DHT22;1872;51.406;6.856;2023-02-26T03:37:11;0.20;99.90
3713;DHT22;1872;51.406;6.856;2023-02-26T03:39:43;0.20;99.90
3713;DHT22;1872;51.406;6.856;2023-02-26T03:47:24;0.20;99.90
3713;DHT22;1872;51.406;6.856;2023-02-26T03:49:55;0.20;99.90
3713;DHT22;1872;51.406;6.856;2023-02-26T03:52:26;0.10;99.90
3713;DHT22;1872;51.406;6.856;2023-02-26T03:55:33;0.10;99.90
3713;DHT22;1872;51.406;6.856;2023-02-26T03:57:59;0.10;99.90
3713;DHT22;1872;51.406;6.856;2023-02-26T04:00:26;0.10;99.90
3713;DHT22;1872;51.406;6.856;2023-02-26T04:05:47;0.10;99.90
3713;DHT22;1872;51.406;6.856;2023-02-26T04:08:13;0.10;99.90
3713;DHT22;1872;51.406;6.856;2023-02-26T04:10:43;0.10;99.90
3713;DHT22;1872;51.406;6.856;2023-02-26T04:13:10;0.00;99.90
3713;DHT22;1872;51.406;6.856;2023-02-26T04:15:36;0.00;99.90
3713;DHT22;1872;51.406;6.856;2023-02-26T04:18:02;0.00;99.90
3713;DHT22;1872;51.406;6.856;2023-02-26T04:20:28;0.00;99.90
3713;DHT22;1872;51.406;6.856;2023-02-26T04:22:54;0.00;99.90
3713;DHT22;1872;51.406;6.856;2023-02-26T04:25:19;0.00;99.90
3713;DHT22;1872;51.406;6.856;2023-02-26T04:27:45;-0.10;99.90
3713;DHT22;1872;51.406;6.856;2023-02-26T04:30:11;-0.10;99.90
3713;DHT22;1872;51.406;6.856;2023-02-26T04:32:36;-0.10;99.90
3713;DHT22;1872;51.406;6.856;2023-02-26T04:35:02;-0.10;99.90
3713;DHT22;1872;51.406;6.856;2023-02-26T04:37:28;-0.10;99.90
3713;DHT22;1872;51.406;6.856;2023-02-26T04:39:54;-0.10;99.90
3713;DHT22;1872;51.406;6.856;2023-02-26T04:42:19;-0.10;99.90
3713;DHT22;1872;51.406;6.856;2023-02-26T04:44:45;-0.20;99.90
3713;DHT22;1872;51.406;6.856;2023-02-26T04:47:10;-0.20;99.90
3713;DHT22;1872;51.406;6.856;2023-02-26T04:49:36;-0.20;99.90
3713;DHT22;1872;51.406;6.856;2023-02-26T04:52:02;-0.20;99.90
3713;DHT22;1872;51.406;6.856;2023-02-26T04:54:28;-0.20;99.90
3713;DHT22;1872;51.406;6.856;2023-02-26T04:56:53;-0.20;99.90
3713;DHT22;1872;51.406;6.856;2023-02-26T04:59:19;-0.20;99.90
3713;DHT22;1872;51.406;6.856;2023-02-26T05:01:44;-0.20;99.90
3713;DHT22;1872;51.406;6.856;2023-02-26T05:04:10;-0.20;99.90
3713;DHT22;1872;51.406;6.856;2023-02-26T05:06:36;-0.20;99.90
3713;DHT22;1872;51.406;6.856;2023-02-26T05:09:02;-0.20;99.90
3713;DHT22;1872;51.406;6.856;2023-02-26T05:11:27;-0.30;99.90
3713;DHT22;1872;51.406;6.856;2023-02-26T05:13:53;-0.30;99.90
3713;DHT22;1872;51.406;6.856;2023-02-26T05:16:18;-0.30;99.90
3713;DHT22;1872;51.406;6.856;2023-02-26T05:18:44;-0.30;99.90
3713;DHT22;1872;51.406;6.856;2023-02-26T05:21:10;-0.30;99.90
3713;DHT22;1872;51.406;6.856;2023-02-26T05:23:35;-0.30;99.90
3713;DHT22;1872;51.406;6.856;2023-02-26T05:26:01;-0.30;99.90
3713;DHT22;1872;51.406;6.856;2023-02-26T05:28:27;-0.30;99.90
3713;DHT22;1872;51.406;6.856;2023-02-26T05:30:54;-0.30;99.90
3713;DHT22;1872;51.406;6.856;2023-02-26T05:33:20;-0.40;99.90
3713;DHT22;1872;51.406;6.856;2023-02-26T05:35:45;-0.40;99.90
3713;DHT22;1872;51.406;6.856;2023-02-26T05:38:12;-0.40;99.90
3713;DHT22;1872;51.406;6.856;2023-02-26T05:40:38;-0.40;99.90
3713;DHT22;1872;51.406;6.856;2023-02-26T05:43:03;-0.40;99.90
3713;DHT22;1872;51.406;6.856;2023-02-26T05:45:29;-0.40;99.90
3713;DHT22;1872;51.406;6.856;2023-02-26T05:47:54;-0.40;99.90
3713;DHT22;1872;51.406;6.856;2023-02-26T05:50:20;-0.40;99.90
3713;DHT22;1872;51.406;6.856;2023-02-26T05:52:46;-0.40;99.90
3713;DHT22;1872;51.406;6.856;2023-02-26T05:55:12;-0.40;99.90
3713;DHT22;1872;51.406;6.856;2023-02-26T05:57:37;-0.40;99.90
3713;DHT22;1872;51.406;6.856;2023-02-26T06:00:05;-0.40;99.90
3713;DHT22;1872;51.406;6.856;2023-02-26T06:02:31;-0.40;99.90
3713;DHT22;1872;51.406;6.856;2023-02-26T06:04:57;-0.50;99.90
3713;DHT22;1872;51.406;6.856;2023-02-26T06:07:29;-0.50;99.90
3713;DHT22;1872;51.406;6.856;2023-02-26T06:09:55;-0.50;99.90
3713;DHT22;1872;51.406;6.856;2023-02-26T06:12:37;-0.50;99.90
3713;DHT22;1872;51.406;6.856;2023-02-26T06:15:03;-0.50;99.90
3713;DHT22;1872;51.406;6.856;2023-02-26T06:17:29;-0.50;99.90
3713;DHT22;1872;51.406;6.856;2023-02-26T06:19:55;-0.50;99.90
3713;DHT22;1872;51.406;6.856;2023-02-26T06:22:21;-0.50;99.90
3713;DHT22;1872;51.406;6.856;2023-02-26T06:24:46;-0.50;99.90
3713;DHT22;1872;51.406;6.856;2023-02-26T06:27:12;-0.50;99.90
3713;DHT22;1872;51.406;6.856;2023-02-26T06:29:38;-0.50;99.90
3713;DHT22;1872;51.406;6.856;2023-02-26T06:32:05;-0.50;99.90
3713;DHT22;1872;51.406;6.856;2023-02-26T06:34:31;-0.50;99.90
3713;DHT22;1872;51.406;6.856;2023-02-26T06:36:57;-0.50;99.90
3713;DHT22;1872;51.406;6.856;2023-02-26T06:39:22;-0.50;99.90
3713;DHT22;1872;51.406;6.856;2023-02-26T06:41:48;-0.60;99.90
3713;DHT22;1872;51.406;6.856;2023-02-26T06:44:14;-0.60;99.90
3713;DHT22;1872;51.406;6.856;2023-02-26T06:46:40;-0.50;99.90
3713;DHT22;1872;51.406;6.856;2023-02-26T06:49:06;-0.50;99.90
3713;DHT22;1872;51.406;6.856;2023-02-26T06:51:31;-0.50;99.90
3713;DHT22;1872;51.406;6.856;2023-02-26T06:53:57;-0.50;99.90
3713;DHT22;1872;51.406;6.856;2023-02-26T06:56:23;-0.50;99.90
3713;DHT22;1872;51.406;6.856;2023-02-26T06:58:49;-0.50;99.90
3713;DHT22;1872;51.406;6.856;2023-02-26T07:01:15;-0.50;99.90
3713;DHT22;1872;51.406;6.856;2023-02-26T07:03:41;-0.50;99.90
3713;DHT22;1872;51.406;6.856;2023-02-26T07:06:09;-0.50;99.90
3713;DHT22;1872;51.406;6.856;2023-02-26T07:08:35;-0.50;99.90
3713;DHT22;1872;51.406;6.856;2023-02-26T07:11:01;-0.40;99.90
3713;DHT22;1872;51.406;6.856;2023-02-26T07:13:27;-0.40;99.90
3713;DHT22;1872;51.406;6.856;2023-02-26T07:15:53;-0.40;99.90
3713;DHT22;1872;51.406;6.856;2023-02-26T07:18:18;-0.40;99.90
3713;DHT22;1872;51.406;6.856;2023-02-26T07:20:44;-0.40;99.90
3713;DHT22;1872;51.406;6.856;2023-02-26T07:23:13;-0.30;99.90
3713;DHT22;1872;51.406;6.856;2023-02-26T07:25:38;-0.30;99.90
3713;DHT22;1872;51.406;6.856;2023-02-26T07:28:04;-0.20;99.90
3713;DHT22;1872;51.406;6.856;2023-02-26T07:30:30;-0.20;99.90
3713;DHT22;1872;51.406;6.856;2023-02-26T07:32:56;-0.10;99.90
3713;DHT22;1872;51.406;6.856;2023-02-26T07:35:22;-0.10;99.90
3713;DHT22;1872;51.406;6.856;2023-02-26T07:37:48;-0.10;99.90
3713;DHT22;1872;51.406;6.856;2023-02-26T07:40:14;0.00;99.90
3713;DHT22;1872;51.406;6.856;2023-02-26T07:42:40;0.00;99.90
3713;DHT22;1872;51.406;6.856;2023-02-26T07:45:07;0.10;99.90
3713;DHT22;1872;51.406;6.856;2023-02-26T07:47:33;0.20;99.90
3713;DHT22;1872;51.406;6.856;2023-02-26T07:49:59;0.20;99.90
3713;DHT22;1872;51.406;6.856;2023-02-26T07:52:25;0.30;99.90
3713;DHT22;1872;51.406;6.856;2023-02-26T07:54:51;0.30;99.90
3713;DHT22;1872;51.406;6.856;2023-02-26T07:57:17;0.40;99.90
3713;DHT22;1872;51.406;6.856;2023-02-26T07:59:43;0.50;99.90
3713;DHT22;1872;51.406;6.856;2023-02-26T08:02:10;0.50;99.90
3713;DHT22;1872;51.406;6.856;2023-02-26T08:04:36;0.70;99.90
3713;DHT22;1872;51.406;6.856;2023-02-26T08:07:04;0.80;99.90
3713;DHT22;1872;51.406;6.856;2023-02-26T08:09:30;0.90;99.90
3713;DHT22;1872;51.406;6.856;2023-02-26T08:11:56;1.00;99.90
3713;DHT22;1872;51.406;6.856;2023-02-26T08:14:22;1.10;99.90
3713;DHT22;1872;51.406;6.856;2023-02-26T08:16:48;1.10;99.90
3713;DHT22;1872;51.406;6.856;2023-02-26T08:19:14;1.10;99.90
3713;DHT22;1872;51.406;6.856;2023-02-26T08:21:39;1.10;99.90
3713;DHT22;1872;51.406;6.856;2023-02-26T08:24:05;1.20;99.90
3713;DHT22;1872;51.406;6.856;2023-02-26T08:26:34;1.30;99.90
3713;DHT22;1872;51.406;6.856;2023-02-26T08:29:01;1.30;99.90
3713;DHT22;1872;51.406;6.856;2023-02-26T08:31:27;1.40;99.90
3713;DHT22;1872;51.406;6.856;2023-02-26T08:33:53;1.40;99.90
3713;DHT22;1872;51.406;6.856;2023-02-26T08:36:18;1.40;99.90
3713;DHT22;1872;51.406;6.856;2023-02-26T08:38:46;1.40;99.90
3713;DHT22;1872;51.406;6.856;2023-02-26T08:41:12;1.50;99.90
3713;DHT22;1872;51.406;6.856;2023-02-26T08:43:38;1.50;99.90
3713;DHT22;1872;51.406;6.856;2023-02-26T08:46:04;1.50;99.90
3713;DHT22;1872;51.406;6.856;2023-02-26T08:48:30;1.60;99.90
3713;DHT22;1872;51.406;6.856;2023-02-26T08:50:55;1.70;99.90
3713;DHT22;1872;51.406;6.856;2023-02-26T08:53:21;1.80;99.90
3713;DHT22;1872;51.406;6.856;2023-02-26T08:55:48;1.90;99.90
3713;DHT22;1872;51.406;6.856;2023-02-26T08:58:15;1.90;99.90
3713;DHT22;1872;51.406;6.856;2023-02-26T09:00:40;2.00;99.90
3713;DHT22;1872;51.406;6.856;2023-02-26T09:03:07;2.10;99.90
3713;DHT22;1872;51.406;6.856;2023-02-26T09:05:33;2.20;99.90
3713;DHT22;1872;51.406;6.856;2023-02-26T09:08:00;2.30;99.90
3713;DHT22;1872;51.406;6.856;2023-02-26T09:10:25;2.20;99.90
3713;DHT22;1872;51.406;6.856;2023-02-26T09:12:51;2.10;99.90
3713;DHT22;1872;51.406;6.856;2023-02-26T09:15:17;2.10;99.90
3713;DHT22;1872;51.406;6.856;2023-02-26T09:17:43;2.10;99.90
3713;DHT22;1872;51.406;6.856;2023-02-26T09:20:10;2.20;99.90
3713;DHT22;1872;51.406;6.856;2023-02-26T09:22:36;2.20;99.90
3713;DHT22;1872;51.406;6.856;2023-02-26T09:25:03;2.30;99.90
3713;DHT22;1872;51.406;6.856;2023-02-26T09:27:29;2.30;99.90
3713;DHT22;1872;51.406;6.856;2023-02-26T09:29:55;2.20;99.90
3713;DHT22;1872;51.406;6.856;2023-02-26T09:32:20;2.30;99.90
3713;DHT22;1872;51.406;6.856;2023-02-26T09:34:46;2.30;99.90
3713;DHT22;1872;51.406;6.856;2023-02-26T09:37:12;2.40;99.90
3713;DHT22;1872;51.406;6.856;2023-02-26T09:39:37;2.40;99.90
3713;DHT22;1872;51.406;6.856;2023-02-26T09:42:29;2.40;99.90
3713;DHT22;1872;51.406;6.856;2023-02-26T09:44:58;2.30;99.90
3713;DHT22;1872;51.406;6.856;2023-02-26T09:47:36;2.30;99.90
3713;DHT22;1872;51.406;6.856;2023-02-26T09:50:15;2.40;99.90
3713;DHT22;1872;51.406;6.856;2023-02-26T09:53:00;2.40;99.90
3713;DHT22;1872;51.406;6.856;2023-02-26T09:55:36;2.50;99.90
3713;DHT22;1872;51.406;6.856;2023-02-26T10:01:04;2.70;99.90
3713;DHT22;1872;51.406;6.856;2023-02-26T10:06:28;2.60;99.90
3713;DHT22;1872;51.406;6.856;2023-02-26T10:09:21;2.70;99.90
3713;DHT22;1872;51.406;6.856;2023-02-26T10:17:29;2.70;99.90
3713;DHT22;1872;51.406;6.856;2023-02-26T10:20:03;2.70;99.90
3713;DHT22;1872;51.406;6.856;2023-02-26T10:22:48;2.70;99.90
3713;DHT22;1872;51.406;6.856;2023-02-26T10:25:21;2.60;99.90
3713;DHT22;1872;51.406;6.856;2023-02-26T10:30:46;2.60;99.90
3713;DHT22;1872;51.406;6.856;2023-02-26T10:33:42;2.60;99.90
3713;DHT22;1872;51.406;6.856;2023-02-26T10:38:42;2.50;99.90
3713;DHT22;1872;51.406;6.856;2023-02-26T10:41:22;2.50;99.90
3713;DHT22;1872;51.406;6.856;2023-02-26T10:44:15;2.50;99.90
3713;DHT22;1872;51.406;6.856;2023-02-26T10:46:52;2.50;99.90
3713;DHT22;1872;51.406;6.856;2023-02-26T10:49:46;2.50;99.90
3713;DHT22;1872;51.406;6.856;2023-02-26T10:52:23;2.50;99.90
3713;DHT22;1872;51.406;6.856;2023-02-26T10:55:07;2.50;99.90
3713;DHT22;1872;51.406;6.856;2023-02-26T10:57:41;2.50;99.90
3713;DHT22;1872;51.406;6.856;2023-02-26T11:00:16;2.50;99.90
3713;DHT22;1872;51.406;6.856;2023-02-26T11:02:45;2.50;99.90
3713;DHT22;1872;51.406;6.856;2023-02-26T11:05:16;2.50;99.90
3713;DHT22;1872;51.406;6.856;2023-02-26T11:07:45;2.50;99.90
3713;DHT22;1872;51.406;6.856;2023-02-26T11:10:18;2.50;99.90
3713;DHT22;1872;51.406;6.856;2023-02-26T11:12:45;2.60;99.90
3713;DHT22;1872;51.406;6.856;2023-02-26T11:15:17;2.60;99.90
3713;DHT22;1872;51.406;6.856;2023-02-26T11:17:46;2.50;99.90
3713;DHT22;1872;51.406;6.856;2023-02-26T11:22:57;2.60;99.90
3713;DHT22;1872;51.406;6.856;2023-02-26T11:25:28;2.60;99.90
3713;DHT22;1872;51.406;6.856;2023-02-26T11:28:23;2.70;99.90
3713;DHT22;1872;51.406;6.856;2023-02-26T11:30:51;2.70;99.90
3713;DHT22;1872;51.406;6.856;2023-02-26T11:33:37;2.90;99.90
3713;DHT22;1872;51.406;6.856;2023-02-26T11:36:08;2.90;99.90
3713;DHT22;1872;51.406;6.856;2023-02-26T11:38:35;2.90;99.90
3713;DHT22;1872;51.406;6.856;2023-02-26T11:41:01;2.90;99.90
3713;DHT22;1872;51.406;6.856;2023-02-26T11:43:36;2.80;99.90
3713;DHT22;1872;51.406;6.856;2023-02-26T11:46:04;2.80;99.90
3713;DHT22;1872;51.406;6.856;2023-02-26T11:48:47;2.70;99.90
3713;DHT22;1872;51.406;6.856;2023-02-26T11:51:22;2.60;99.90
3713;DHT22;1872;51.406;6.856;2023-02-26T11:53:55;2.60;99.90
3713;DHT22;1872;51.406;6.856;2023-02-26T11:56:34;2.70;99.90
3713;DHT22;1872;51.406;6.856;2023-02-26T11:59:16;2.70;99.90
3713;DHT22;1872;51.406;6.856;2023-02-26T12:01:42;2.80;99.90
3713;DHT22;1872;51.406;6.856;2023-02-26T12:04:10;2.80;99.90
3713;DHT22;1872;51.406;6.856;2023-02-26T12:06:37;2.80;99.90
3713;DHT22;1872;51.406;6.856;2023-02-26T12:09:03;2.80;99.90
3713;DHT22;1872;51.406;6.856;2023-02-26T12:14:18;2.80;99.90
3713;DHT22;1872;51.406;6.856;2023-02-26T12:22:01;2.90;99.90
3713;DHT22;1872;51.406;6.856;2023-02-26T12:35:44;3.40;99.90
3713;DHT22;1872;51.406;6.856;2023-02-26T12:38:27;3.50;99.90
3713;DHT22;1872;51.406;6.856;2023-02-26T12:43:53;3.60;99.90
3713;DHT22;1872;51.406;6.856;2023-02-26T12:46:33;3.50;98.80
3713;DHT22;1872;51.406;6.856;2023-02-26T13:05:51;3.40;98.20
3713;DHT22;1872;51.406;6.856;2023-02-26T13:08:57;3.40;98.50
3713;DHT22;1872;51.406;6.856;2023-02-26T13:11:25;3.40;98.70
3713;DHT22;1872;51.406;6.856;2023-02-26T13:14:04;3.40;98.50
3713;DHT22;1872;51.406;6.856;2023-02-26T13:19:55;3.40;97.20
3713;DHT22;1872;51.406;6.856;2023-02-26T13:22:29;3.30;97.70
3713;DHT22;1872;51.406;6.856;2023-02-26T13:27:34;3.40;98.20
3713;DHT22;1872;51.406;6.856;2023-02-26T13:32:48;3.60;97.80
3713;DHT22;1872;51.406;6.856;2023-02-26T13:35:27;3.60;97.40
3713;DHT22;1872;51.406;6.856;2023-02-26T13:37:58;3.70;97.90
3713;DHT22;1872;51.406;6.856;2023-02-26T13:53:59;3.80;97.10
3713;DHT22;1872;51.406;6.856;2023-02-26T14:06:52;3.90;96.80
3713;DHT22;1872;51.406;6.856;2023-02-26T14:19:42;4.10;96.20
3713;DHT22;1872;51.406;6.856;2023-02-26T14:24:56;4.10;95.80
3713;DHT22;1872;51.406;6.856;2023-02-26T14:27:37;4.10;96.20
3713;DHT22;1872;51.406;6.856;2023-02-26T14:35:28;4.10;95.70
3713;DHT22;1872;51.406;6.856;2023-02-26T14:38:02;4.10;94.90
3713;DHT22;1872;51.406;6.856;2023-02-26T14:40:41;4.10;95.30
3713;DHT22;1872;51.406;6.856;2023-02-26T14:43:18;4.00;95.20
3713;DHT22;1872;51.406;6.856;2023-02-26T14:45:45;3.90;95.10
3713;DHT22;1872;51.406;6.856;2023-02-26T14:48:21;3.90;95.50
3713;DHT22;1872;51.406;6.856;2023-02-26T14:51:07;3.90;95.30
3713;DHT22;1872;51.406;6.856;2023-02-26T14:53:45;3.90;94.80
3713;DHT22;1872;51.406;6.856;2023-02-26T14:59:18;3.90;95.10
3713;DHT22;1872;51.406;6.856;2023-02-26T15:15:44;4.00;94.80
3713;DHT22;1872;51.406;6.856;2023-02-26T15:18:32;4.00;95.00
3713;DHT22;1872;51.406;6.856;2023-02-26T15:23:49;4.00;94.30
3713;DHT22;1872;51.406;6.856;2023-02-26T15:26:28;4.00;94.30
3713;DHT22;1872;51.406;6.856;2023-02-26T15:28:56;4.00;94.60
3713;DHT22;1872;51.406;6.856;2023-02-26T15:31:42;4.00;94.40
3713;DHT22;1872;51.406;6.856;2023-02-26T15:34:11;4.00;93.70
3713;DHT22;1872;51.406;6.856;2023-02-26T15:36:44;4.00;93.90
3713;DHT22;1872;51.406;6.856;2023-02-26T15:39:11;4.00;94.40
3713;DHT22;1872;51.406;6.856;2023-02-26T15:41:37;4.00;94.40
3713;DHT22;1872;51.406;6.856;2023-02-26T15:44:06;4.10;94.70
3713;DHT22;1872;51.406;6.856;2023-02-26T15:46:37;4.00;94.40
3713;DHT22;1872;51.406;6.856;2023-02-26T15:49:33;4.10;94.10
3713;DHT22;1872;51.406;6.856;2023-02-26T15:52:00;4.10;94.40
3713;DHT22;1872;51.406;6.856;2023-02-26T15:54:32;4.10;94.50
3713;DHT22;1872;51.406;6.856;2023-02-26T15:56:59;4.00;94.60
3713;DHT22;1872;51.406;6.856;2023-02-26T15:59:28;4.00;94.60
3713;DHT22;1872;51.406;6.856;2023-02-26T16:01:55;4.00;94.40
3713;DHT22;1872;51.406;6.856;2023-02-26T16:04:22;4.00;94.10
3713;DHT22;1872;51.406;6.856;2023-02-26T16:06:52;4.00;94.20
3713;DHT22;1872;51.406;6.856;2023-02-26T16:09:45;4.00;94.40
3713;DHT22;1872;51.406;6.856;2023-02-26T16:12:35;4.00;94.50
3713;DHT22;1872;51.406;6.856;2023-02-26T16:15:37;4.00;94.60
3713;DHT22;1872;51.406;6.856;2023-02-26T16:18:04;4.00;94.40
3713;DHT22;1872;51.406;6.856;2023-02-26T16:20:39;3.90;94.20
3713;DHT22;1872;51.406;6.856;2023-02-26T16:23:15;3.90;93.90
3713;DHT22;1872;51.406;6.856;2023-02-26T16:26:02;3.90;94.00
3713;DHT22;1872;51.406;6.856;2023-02-26T16:28:37;3.90;93.90
3713;DHT22;1872;51.406;6.856;2023-02-26T16:31:18;3.80;94.10
3713;DHT22;1872;51.406;6.856;2023-02-26T16:34:00;3.80;93.90
3713;DHT22;1872;51.406;6.856;2023-02-26T16:36:46;3.80;93.80
3713;DHT22;1872;51.406;6.856;2023-02-26T16:39:22;3.70;93.70
3713;DHT22;1872;51.406;6.856;2023-02-26T16:42:01;3.70;93.80
3713;DHT22;1872;51.406;6.856;2023-02-26T16:46:57;3.70;93.90
3713;DHT22;1872;51.406;6.856;2023-02-26T16:49:32;3.60;93.80
3713;DHT22;1872;51.406;6.856;2023-02-26T16:52:01;3.60;94.00
3713;DHT22;1872;51.406;6.856;2023-02-26T16:54:39;3.60;93.80
3713;DHT22;1872;51.406;6.856;2023-02-26T16:57:06;3.60;93.70
3713;DHT22;1872;51.406;6.856;2023-02-26T16:59:37;3.50;93.60
3713;DHT22;1872;51.406;6.856;2023-02-26T17:02:15;3.50;93.40
3713;DHT22;1872;51.406;6.856;2023-02-26T17:04:46;3.50;93.40
3713;DHT22;1872;51.406;6.856;2023-02-26T17:07:32;3.50;93.50
3713;DHT22;1872;51.406;6.856;2023-02-26T17:10:06;3.50;93.30
3713;DHT22;1872;51.406;6.856;2023-02-26T17:12:44;3.40;93.30
3713;DHT22;1872;51.406;6.856;2023-02-26T17:15:29;3.40;93.20
3713;DHT22;1872;51.406;6.856;2023-02-26T17:17:55;3.40;93.60
3713;DHT22;1872;51.406;6.856;2023-02-26T17:20:24;3.40;93.60
3713;DHT22;1872;51.406;6.856;2023-02-26T17:22:51;3.30;93.60
3713;DHT22;1872;51.406;6.856;2023-02-26T17:25:18;3.30;93.70
3713;DHT22;1872;51.406;6.856;2023-02-26T17:27:46;3.30;93.70
3713;DHT22;1872;51.406;6.856;2023-02-26T17:30:15;3.30;93.80
3713;DHT22;1872;51.406;6.856;2023-02-26T17:32:43;3.20;93.70
3713;DHT22;1872;51.406;6.856;2023-02-26T17:35:12;3.20;93.80
3713;DHT22;1872;51.406;6.856;2023-02-26T17:37:38;3.20;93.90
3713;DHT22;1872;51.406;6.856;2023-02-26T17:40:21;3.20;93.90
3713;DHT22;1872;51.406;6.856;2023-02-26T17:42:48;3.10;93.80
3713;DHT22;1872;51.406;6.856;2023-02-26T17:45:14;3.10;94.00
3713;DHT22;1872;51.406;6.856;2023-02-26T17:47:40;3.10;94.00
3713;DHT22;1872;51.406;6.856;2023-02-26T17:53:12;3.10;94.00
3713;DHT22;1872;51.406;6.856;2023-02-26T17:55:38;3.10;94.20
3713;DHT22;1872;51.406;6.856;2023-02-26T17:58:06;3.10;94.30
3713;DHT22;1872;51.406;6.856;2023-02-26T18:00:32;3.10;94.70
3713;DHT22;1872;51.406;6.856;2023-02-26T18:03:04;3.10;94.50
3713;DHT22;1872;51.406;6.856;2023-02-26T18:05:30;3.10;94.60
3713;DHT22;1872;51.406;6.856;2023-02-26T18:08:01;3.10;94.50
3713;DHT22;1872;51.406;6.856;2023-02-26T18:10:26;3.10;94.60
3713;DHT22;1872;51.406;6.856;2023-02-26T18:12:52;3.10;94.80
3713;DHT22;1872;51.406;6.856;2023-02-26T18:15:18;3.20;94.90
3713;DHT22;1872;51.406;6.856;2023-02-26T18:17:43;3.20;95.00
3713;DHT22;1872;51.406;6.856;2023-02-26T18:20:20;3.20;95.00
3713;DHT22;1872;51.406;6.856;2023-02-26T18:22:49;3.20;95.10
3713;DHT22;1872;51.406;6.856;2023-02-26T18:25:16;3.20;95.20
3713;DHT22;1872;51.406;6.856;2023-02-26T18:27:43;3.30;95.20
3713;DHT22;1872;51.406;6.856;2023-02-26T18:30:30;3.30;95.40
3713;DHT22;1872;51.406;6.856;2023-02-26T18:32:57;3.30;95.50
3713;DHT22;1872;51.406;6.856;2023-02-26T18:35:24;3.30;95.60
3713;DHT22;1872;51.406;6.856;2023-02-26T18:37:53;3.30;95.50
3713;DHT22;1872;51.406;6.856;2023-02-26T18:40:21;3.30;95.50
3713;DHT22;1872;51.406;6.856;2023-02-26T18:42:48;3.30;95.60
3713;DHT22;1872;51.406;6.856;2023-02-26T18:45:14;3.30;95.60
3713;DHT22;1872;51.406;6.856;2023-02-26T18:47:41;3.30;95.60
3713;DHT22;1872;51.406;6.856;2023-02-26T18:50:10;3.30;95.70
3713;DHT22;1872;51.406;6.856;2023-02-26T18:52:48;3.20;95.80
3713;DHT22;1872;51.406;6.856;2023-02-26T18:55:14;3.20;96.10
3713;DHT22;1872;51.406;6.856;2023-02-26T18:57:40;3.20;95.90
3713;DHT22;1872;51.406;6.856;2023-02-26T19:00:09;3.20;96.00
3713;DHT22;1872;51.406;6.856;2023-02-26T19:02:39;3.20;96.00
3713;DHT22;1872;51.406;6.856;2023-02-26T19:05:06;3.20;96.00
3713;DHT22;1872;51.406;6.856;2023-02-26T19:07:32;3.20;96.10
3713;DHT22;1872;51.406;6.856;2023-02-26T19:09:58;3.20;96.10
3713;DHT22;1872;51.406;6.856;2023-02-26T19:12:23;3.10;96.10
3713;DHT22;1872;51.406;6.856;2023-02-26T19:14:50;3.10;96.20
3713;DHT22;1872;51.406;6.856;2023-02-26T19:17:16;3.10;96.20
3713;DHT22;1872;51.406;6.856;2023-02-26T19:19:42;3.00;96.30
3713;DHT22;1872;51.406;6.856;2023-02-26T19:22:10;3.00;96.30
3713;DHT22;1872;51.406;6.856;2023-02-26T19:24:36;3.00;96.50
3713;DHT22;1872;51.406;6.856;2023-02-26T19:27:02;3.00;96.50
3713;DHT22;1872;51.406;6.856;2023-02-26T19:29:28;3.00;96.60
3713;DHT22;1872;51.406;6.856;2023-02-26T19:31:54;3.00;96.60
3713;DHT22;1872;51.406;6.856;2023-02-26T19:34:20;3.00;96.60
3713;DHT22;1872;51.406;6.856;2023-02-26T19:36:46;2.90;96.60
3713;DHT22;1872;51.406;6.856;2023-02-26T19:39:15;2.90;96.60
3713;DHT22;1872;51.406;6.856;2023-02-26T19:41:43;2.90;96.70
3713;DHT22;1872;51.406;6.856;2023-02-26T19:44:09;2.90;96.80
3713;DHT22;1872;51.406;6.856;2023-02-26T19:46:35;2.80;96.80
3713;DHT22;1872;51.406;6.856;2023-02-26T19:49:01;2.80;96.90
3713;DHT22;1872;51.406;6.856;2023-02-26T19:51:26;2.80;96.90
3713;DHT22;1872;51.406;6.856;2023-02-26T19:53:52;2.80;97.00
3713;DHT22;1872;51.406;6.856;2023-02-26T19:56:18;2.80;97.20
3713;DHT22;1872;51.406;6.856;2023-02-26T19:58:43;2.80;97.20
3713;DHT22;1872;51.406;6.856;2023-02-26T20:01:09;2.80;97.30
3713;DHT22;1872;51.406;6.856;2023-02-26T20:03:35;2.80;97.40
3713;DHT22;1872;51.406;6.856;2023-02-26T20:06:01;2.80;97.50